This is the latest recevied weather packets stored in our database for station/object N3WAX-1. If no packets are shown the sender has not sent any weather packets the latest 10 day(s).
| Time | Temp. | Humidity | Pressure | Rain* | Wind** | Luminosity | Snow |
|---|---|---|---|---|---|---|---|
| 1778016208 | 25.56° C | 46% | 1009.3 hPa | 0 mm | - | 432 W/m² | - |
| 1778014098 | 25.56° C | 45% | 1009.6 hPa | 0 mm | - | 403 W/m² | - |
| 1778012428 | 25.56° C | 46% | 1009.7 hPa | 0 mm | - | 555 W/m² | - |
| 1778007773 | 26.11° C | 48% | 1010.3 hPa | 0 mm | - | 800 W/m² | - |
| 1778005671 | 25.56° C | 48% | 1010.6 hPa | 0 mm | - | 856 W/m² | - |
| 1778003528 | 25.56° C | 51% | 1010.9 hPa | 0 mm | - | 912 W/m² | - |
| 1778002135 | 25.56° C | 53% | 1011.2 hPa | 0 mm | - | 935 W/m² | - |
| 1778001067 | 25° C | 56% | 1011.4 hPa | 0 mm | - | 933 W/m² | - |
| 1777999839 | 24.44° C | 56% | 1011.6 hPa | 0 mm | - | 937 W/m² | - |
| 1777998607 | 24.44° C | 57% | 1011.7 hPa | 0 mm | - | 928 W/m² | - |
| 1777998302 | 24.44° C | 57% | 1011.6 hPa | 0 mm | - | 932 W/m² | - |
| 1777996158 | 23.89° C | 60% | 1011.7 hPa | 0 mm | - | 904 W/m² | - |
| 1777995852 | 23.33° C | 60% | 1011.7 hPa | 0 mm | - | 900 W/m² | - |
| 1777994706 | 23.89° C | 56% | 1011.7 hPa | 0 mm | - | 875 W/m² | - |
| 1777989835 | 22.22° C | 60% | 1011.8 hPa | 0 mm | - | 714 W/m² | - |
| 1777989534 | 22.22° C | 57% | 1011.8 hPa | 0 mm | - | 703 W/m² | - |
| 1777988934 | 21.67° C | 60% | 1011.9 hPa | 0 mm | - | 671 W/m² | - |
| 1777988633 | 21.11° C | 61% | 1012 hPa | 0 mm | - | 645 W/m² | - |
| 1777987734 | 20.56° C | 64% | 1012.2 hPa | 0 mm | - | 615 W/m² | - |
| 1777980659 | 16.11° C | 72% | 1011.8 hPa | 0 mm | - | 227 W/m² | - |
| 1777978710 | 15° C | 75% | 1011.5 hPa | 0 mm | - | 70 W/m² | - |
| 1777977194 | 14.44° C | 75% | 1011.4 hPa | 0 mm | - | 49 W/m² | - |
| 1777975392 | 14.44° C | 76% | 1011.3 hPa | 0 mm | - | 5 W/m² | - |
| 1777974635 | 14.44° C | 76% | 1011.1 hPa | 0 mm | - | 0 W/m² | - |
| 1777974195 | 14.44° C | 76% | 1011 hPa | 0 mm | - | 0 W/m² | - |
* Rain latest hour (hover to see other rain measurements)
** Current wind speed in m/s (hover to see current wind gust speed)